Time;durP1;ratioP1;P1;durP2;ratioP2;P2;SDS_P1;SDS_P2;PMS_P1;PMS_P2;Temp;Humidity;BMP_temperature;BMP_pressure;BME280_temperature;BME280_humidity;BME280_pressure;Samples;Min_cycle;Max_cycle;Signal;HPM_P1;HPM_P2
2022/01/04 00:00:12;;;;;;;18.30;5.88;;;7.50;99.90;;;;;;5080071;28;20073;-71
2022/01/04 00:02:38;;;;;;;21.80;5.78;;;7.50;99.90;;;;;;5080894;28;20044;-71
2022/01/04 00:05:05;;;;;;;22.20;6.55;;;7.50;99.90;;;;;;5077723;28;20036;-71
2022/01/04 00:07:32;;;;;;;15.48;5.32;;;7.50;99.90;;;;;;5080592;28;20339;-71
2022/01/04 00:09:58;;;;;;;22.63;6.07;;;7.50;99.90;;;;;;5060842;28;20047;-71
2022/01/04 00:15:09;;;;;;;12.07;5.50;;;7.60;99.90;;;;;;5080329;28;20376;-71
2022/01/04 00:17:35;;;;;;;21.45;5.93;;;7.60;99.90;;;;;;5059202;28;20113;-71
2022/01/04 00:20:01;;;;;;;19.67;6.65;;;7.60;99.90;;;;;;5078774;28;20052;-71
2022/01/04 00:22:27;;;;;;;20.77;6.10;;;7.60;99.90;;;;;;5081828;28;20051;-71
2022/01/04 00:24:52;;;;;;;16.27;5.10;;;7.60;99.90;;;;;;5058789;28;20036;-71
2022/01/04 00:27:18;;;;;;;18.83;5.53;;;7.60;99.90;;;;;;5081937;28;20504;-71
2022/01/04 00:29:44;;;;;;;18.63;5.85;;;7.60;99.90;;;;;;5048626;28;20113;-72
2022/01/04 00:32:10;;;;;;;19.98;5.80;;;7.60;99.90;;;;;;5079991;28;20035;-71
2022/01/04 00:34:36;;;;;;;15.10;5.90;;;7.60;99.90;;;;;;5079219;28;20361;-71
2022/01/04 00:37:02;;;;;;;21.77;6.82;;;7.70;99.90;;;;;;5075210;28;20089;-71
2022/01/04 00:39:27;;;;;;;21.17;6.00;;;7.70;99.90;;;;;;5078917;28;20044;-71
2022/01/04 00:41:53;;;;;;;22.45;6.72;;;7.70;99.90;;;;;;5077497;28;20055;-71
2022/01/04 00:44:19;;;;;;;15.15;6.53;;;7.70;99.90;;;;;;5076937;28;20052;-71
2022/01/04 00:46:45;;;;;;;19.90;6.88;;;7.60;99.90;;;;;;5081148;28;20548;-71
2022/01/04 00:49:11;;;;;;;14.32;6.63;;;7.70;99.90;;;;;;5075174;28;20047;-71
2022/01/04 00:51:42;;;;;;;18.75;6.80;;;7.70;99.90;;;;;;5080859;28;20055;-71
2022/01/04 00:54:10;;;;;;;30.05;9.20;;;7.70;99.90;;;;;;5074753;28;20067;-71
2022/01/04 00:56:36;;;;;;;22.05;5.97;;;7.70;99.90;;;;;;5076595;28;20036;-71
2022/01/04 00:59:03;;;;;;;20.88;6.70;;;7.70;99.90;;;;;;5077578;28;20112;-71
2022/01/04 01:01:29;;;;;;;28.98;7.47;;;7.70;99.90;;;;;;5075693;28;20044;-71
2022/01/04 01:03:55;;;;;;;17.63;6.72;;;7.70;99.90;;;;;;5061923;28;20040;-72
2022/01/04 01:06:22;;;;;;;16.70;6.40;;;7.70;99.90;;;;;;5077902;28;20473;-71
2022/01/04 01:08:48;;;;;;;17.10;5.65;;;7.70;99.90;;;;;;5078041;28;20064;-71
2022/01/04 01:11:14;;;;;;;22.70;9.07;;;7.70;99.90;;;;;;5080067;28;20059;-71
2022/01/04 01:13:40;;;;;;;24.98;7.03;;;7.70;99.90;;;;;;5058349;28;20075;-71
2022/01/04 01:16:09;;;;;;;18.38;6.43;;;7.70;99.90;;;;;;5061074;28;20473;-71
2022/01/04 01:18:36;;;;;;;19.85;6.85;;;7.70;99.90;;;;;;5077749;28;20044;-71
2022/01/04 01:21:03;;;;;;;25.50;8.20;;;7.70;99.90;;;;;;5077263;28;20210;-71
2022/01/04 01:23:29;;;;;;;12.73;5.63;;;7.70;99.90;;;;;;5080461;28;20040;-71
2022/01/04 01:25:56;;;;;;;19.35;7.35;;;7.70;99.90;;;;;;5073941;28;20052;-71
2022/01/04 01:28:23;;;;;;;22.20;7.00;;;7.70;99.90;;;;;;5080749;28;20493;-71
2022/01/04 01:30:50;;;;;;;20.85;6.75;;;7.60;99.90;;;;;;5077336;28;20036;-71
2022/01/04 01:33:16;;;;;;;19.27;7.22;;;7.70;99.90;;;;;;5078759;28;20040;-71
2022/01/04 01:35:42;;;;;;;18.50;6.65;;;7.70;99.90;;;;;;5082307;28;20051;-71
2022/01/04 01:38:08;;;;;;;26.13;6.63;;;7.70;99.90;;;;;;5079470;28;20318;-71
2022/01/04 01:40:36;;;;;;;24.10;8.25;;;7.70;99.90;;;;;;5081407;28;20040;-71
2022/01/04 01:43:03;;;;;;;17.50;7.43;;;7.60;99.90;;;;;;5083103;28;20500;-71
2022/01/04 01:45:29;;;;;;;22.38;7.15;;;7.70;99.90;;;;;;5081264;28;20437;-72
2022/01/04 01:47:55;;;;;;;21.05;6.65;;;7.70;99.90;;;;;;5085407;28;20085;-72
2022/01/04 01:50:21;;;;;;;32.58;7.60;;;7.70;99.90;;;;;;5079599;28;20039;-71
2022/01/04 01:52:50;;;;;;;15.57;7.03;;;7.70;99.90;;;;;;5082427;28;20074;-71
2022/01/04 01:55:18;;;;;;;25.63;7.78;;;7.70;99.90;;;;;;5080885;28;20044;-71
2022/01/04 01:57:44;;;;;;;26.33;6.88;;;7.80;99.90;;;;;;5079012;28;20053;-71
2022/01/04 02:00:13;;;;;;;25.27;8.05;;;7.80;99.90;;;;;;5082232;28;20059;-71
2022/01/04 02:02:39;;;;;;;19.10;7.15;;;7.80;99.90;;;;;;5069492;28;20436;-71
2022/01/04 02:05:06;;;;;;;22.67;7.28;;;7.80;99.90;;;;;;5078865;28;20473;-71
2022/01/04 02:07:33;;;;;;;28.70;9.05;;;7.80;99.90;;;;;;5081996;28;20183;-71
2022/01/04 02:10:03;;;;;;;18.90;7.65;;;7.80;99.90;;;;;;5078342;28;20527;-71
2022/01/04 02:12:35;;;;;;;20.67;8.00;;;7.80;99.90;;;;;;5067059;28;20076;-71
2022/01/04 02:15:01;;;;;;;20.77;8.00;;;7.80;99.90;;;;;;5080287;28;20044;-71
2022/01/04 02:17:27;;;;;;;27.30;8.73;;;7.80;99.90;;;;;;5080629;28;20071;-71
2022/01/04 02:19:57;;;;;;;22.20;8.50;;;7.80;99.90;;;;;;5083051;28;20052;-71
2022/01/04 02:22:24;;;;;;;22.25;8.77;;;7.70;99.90;;;;;;5079375;28;20117;-71
2022/01/04 02:24:50;;;;;;;25.75;8.77;;;7.70;99.90;;;;;;5083320;28;20032;-71
2022/01/04 02:27:16;;;;;;;24.38;9.52;;;7.70;99.90;;;;;;5080204;28;20040;-71
2022/01/04 02:29:43;;;;;;;31.83;10.07;;;7.70;99.90;;;;;;5080365;28;20062;-71
2022/01/04 02:32:10;;;;;;;26.75;9.75;;;7.70;99.90;;;;;;5083772;28;20059;-71
2022/01/04 02:34:35;;;;;;;27.08;9.25;;;7.70;99.90;;;;;;5078679;28;20083;-71
2022/01/04 02:37:01;;;;;;;26.88;9.48;;;7.70;99.90;;;;;;5079605;28;20490;-71
2022/01/04 02:39:27;;;;;;;20.63;8.57;;;7.70;99.90;;;;;;5080491;28;20059;-71
2022/01/04 02:41:53;;;;;;;22.27;9.13;;;7.70;99.90;;;;;;5079403;28;20031;-71
2022/01/04 02:44:19;;;;;;;19.67;9.35;;;7.70;99.90;;;;;;5081397;28;20059;-71
2022/01/04 02:46:45;;;;;;;21.88;9.30;;;7.70;99.90;;;;;;5076337;28;20442;-71
2022/01/04 02:49:10;;;;;;;26.38;10.45;;;7.70;99.90;;;;;;5082053;28;20271;-71
2022/01/04 02:51:37;;;;;;;25.98;9.00;;;7.70;99.90;;;;;;5081147;28;20412;-72
2022/01/04 02:54:03;;;;;;;21.10;10.13;;;7.70;99.90;;;;;;5078075;28;20052;-71
2022/01/04 02:56:29;;;;;;;27.30;9.52;;;7.70;99.90;;;;;;5081540;28;20169;-71
2022/01/04 02:59:02;;;;;;;34.72;11.68;;;7.70;99.90;;;;;;5044606;28;20055;-72
2022/01/04 03:01:28;;;;;;;;;;;7.70;99.90;;;;;;5078297;28;20356;-71
2022/01/04 03:03:54;;;;;;;26.52;11.23;;;7.70;99.90;;;;;;5081454;28;20011;-71
2022/01/04 03:06:19;;;;;;;28.75;10.15;;;7.70;99.90;;;;;;5076357;28;20447;-71
2022/01/04 03:08:45;;;;;;;26.90;10.63;;;7.70;99.90;;;;;;5081997;28;20566;-71
2022/01/04 03:11:11;;;;;;;27.80;10.73;;;7.70;99.90;;;;;;5079590;28;20094;-71
2022/01/04 03:13:37;;;;;;;24.95;10.80;;;7.70;99.90;;;;;;5064324;28;20040;-71
2022/01/04 03:16:03;;;;;;;30.42;9.75;;;7.70;99.90;;;;;;5080962;28;20492;-71
2022/01/04 03:18:29;;;;;;;23.08;8.95;;;7.70;99.90;;;;;;5059773;28;20282;-72
2022/01/04 03:20:54;;;;;;;34.20;9.63;;;7.70;99.90;;;;;;5080728;28;20044;-71
2022/01/04 03:23:20;;;;;;;27.50;9.75;;;7.70;99.90;;;;;;5077610;28;20036;-72
2022/01/04 03:25:46;;;;;;;19.67;8.73;;;7.70;99.90;;;;;;5079094;28;20035;-71
2022/01/04 03:28:12;;;;;;;24.42;9.10;;;7.70;99.90;;;;;;5082251;28;20489;-71
2022/01/04 03:30:38;;;;;;;30.80;9.63;;;7.80;99.90;;;;;;5077029;28;20076;-71
2022/01/04 03:33:04;;;;;;;20.73;9.45;;;7.80;99.90;;;;;;5083024;28;20055;-71
2022/01/04 03:35:30;;;;;;;25.48;8.30;;;7.80;99.90;;;;;;5078286;28;20044;-71
2022/01/04 03:37:56;;;;;;;16.70;8.10;;;7.80;99.90;;;;;;5079250;28;20280;-71
2022/01/04 03:40:22;;;;;;;34.72;10.50;;;7.80;99.90;;;;;;5079851;28;20128;-71
2022/01/04 03:42:47;;;;;;;26.77;9.02;;;7.80;99.90;;;;;;5075148;28;20036;-71
2022/01/04 03:45:13;;;;;;;22.02;7.88;;;7.80;99.90;;;;;;5081204;28;20460;-71
2022/01/04 03:47:39;;;;;;;26.98;9.35;;;7.70;99.90;;;;;;5076602;28;20036;-71
2022/01/04 03:50:05;;;;;;;22.85;9.75;;;7.70;99.90;;;;;;5078852;28;20043;-71
2022/01/04 03:52:31;;;;;;;29.95;8.75;;;7.70;99.90;;;;;;5080177;28;20044;-71
2022/01/04 03:54:57;;;;;;;22.77;10.45;;;7.70;99.90;;;;;;5058501;28;20098;-71
2022/01/04 03:57:23;;;;;;;36.50;9.80;;;7.70;99.90;;;;;;5080049;28;20400;-71
2022/01/04 03:59:49;;;;;;;25.67;9.18;;;7.70;99.90;;;;;;5077381;28;20135;-71
2022/01/04 04:02:14;;;;;;;26.10;9.05;;;7.70;99.90;;;;;;5060731;28;20425;-71
2022/01/04 04:04:40;;;;;;;17.65;8.40;;;7.70;99.90;;;;;;5080287;28;20059;-71
2022/01/04 04:07:06;;;;;;;20.52;9.35;;;7.70;99.90;;;;;;5077002;28;20480;-71
2022/01/04 04:09:34;;;;;;;29.85;10.50;;;7.70;99.90;;;;;;5079517;28;20046;-71
2022/01/04 04:12:01;;;;;;;24.30;8.55;;;7.60;99.90;;;;;;5060966;28;20105;-71
2022/01/04 04:14:28;;;;;;;18.45;8.07;;;7.60;99.90;;;;;;5075581;28;20039;-71
2022/01/04 04:16:56;;;;;;;28.90;9.07;;;7.60;99.90;;;;;;5079663;28;20143;-71
2022/01/04 04:19:21;;;;;;;26.17;8.43;;;7.60;99.90;;;;;;5074020;28;20462;-71
2022/01/04 04:21:47;;;;;;;28.50;8.07;;;7.60;99.90;;;;;;5081085;28;20115;-71
2022/01/04 04:24:14;;;;;;;25.25;8.73;;;7.70;99.90;;;;;;5077352;28;20036;-71
2022/01/04 04:26:40;;;;;;;29.27;8.30;;;7.70;99.90;;;;;;5061389;28;20043;-71
2022/01/04 04:29:06;;;;;;;21.48;9.00;;;7.70;99.90;;;;;;5080730;28;20374;-72
2022/01/04 04:31:32;;;;;;;26.67;9.07;;;7.70;99.90;;;;;;5076353;28;20056;-71
2022/01/04 04:33:58;;;;;;;28.25;9.68;;;7.70;99.90;;;;;;5076872;28;20074;-71
2022/01/04 04:36:24;;;;;;;23.17;7.93;;;7.70;99.90;;;;;;5078720;28;20048;-71
2022/01/04 04:38:50;;;;;;;30.75;9.85;;;7.70;99.90;;;;;;5079271;28;20080;-71
2022/01/04 04:41:16;;;;;;;24.83;9.48;;;7.70;99.90;;;;;;5081003;28;20040;-71
2022/01/04 04:43:42;;;;;;;24.63;9.57;;;7.70;99.90;;;;;;5075650;28;20040;-72
2022/01/04 04:46:09;;;;;;;23.17;9.93;;;7.70;99.90;;;;;;5078977;28;20127;-71
2022/01/04 04:48:34;;;;;;;21.92;9.02;;;7.70;99.90;;;;;;5078405;28;20047;-71
2022/01/04 04:51:00;;;;;;;27.80;8.27;;;7.70;99.90;;;;;;5076807;28;20497;-71
2022/01/04 04:53:26;;;;;;;18.80;8.32;;;7.70;99.90;;;;;;5080660;28;20142;-71
2022/01/04 04:55:52;;;;;;;22.90;8.98;;;7.70;99.90;;;;;;5074104;28;20039;-71
2022/01/04 04:58:18;;;;;;;27.23;8.02;;;7.70;99.90;;;;;;5062123;28;20070;-71
2022/01/04 05:00:43;;;;;;;22.45;8.98;;;7.70;99.90;;;;;;5076065;28;20094;-71
2022/01/04 05:03:09;;;;;;;30.52;8.88;;;7.70;99.90;;;;;;5075738;28;20037;-71
2022/01/04 05:05:35;;;;;;;25.95;9.18;;;7.70;99.90;;;;;;5079624;28;20036;-71
2022/01/04 05:08:02;;;;;;;25.55;10.77;;;7.70;99.90;;;;;;5077825;28;20138;-71
2022/01/04 05:10:28;;;;;;;26.15;9.70;;;7.70;99.90;;;;;;5061858;28;20505;-72
2022/01/04 05:12:54;;;;;;;22.58;10.32;;;7.70;99.90;;;;;;5077868;28;20086;-71
2022/01/04 05:15:20;;;;;;;24.73;9.95;;;7.70;99.90;;;;;;5076170;28;20044;-71
2022/01/04 05:17:46;;;;;;;23.20;7.75;;;7.70;99.90;;;;;;5081630;28;20048;-71
2022/01/04 05:20:11;;;;;;;28.50;9.23;;;7.70;99.90;;;;;;5075508;28;20064;-71
2022/01/04 05:22:38;;;;;;;28.45;9.52;;;7.70;99.90;;;;;;5079539;28;20067;-71
2022/01/04 05:25:04;;;;;;;31.90;9.85;;;7.70;99.90;;;;;;5077964;28;20560;-71
2022/01/04 05:27:30;;;;;;;28.05;10.13;;;7.70;99.90;;;;;;5075124;28;20072;-71
2022/01/04 05:29:56;;;;;;;20.25;8.93;;;7.70;99.90;;;;;;5079643;28;20411;-71
2022/01/04 05:32:23;;;;;;;23.17;8.98;;;7.70;99.90;;;;;;5078168;28;20044;-71
2022/01/04 05:34:49;;;;;;;25.65;8.80;;;7.70;99.90;;;;;;5077710;28;20097;-71
2022/01/04 05:37:15;;;;;;;26.25;9.27;;;7.80;99.90;;;;;;5080890;28;20130;-71
2022/01/04 05:39:41;;;;;;;20.85;9.27;;;7.80;99.90;;;;;;5074025;28;20130;-71
2022/01/04 05:42:08;;;;;;;22.35;8.95;;;7.70;99.90;;;;;;5075239;28;20128;-71
2022/01/04 05:44:38;;;;;;;22.58;8.50;;;7.80;99.90;;;;;;5071537;28;20035;-72
2022/01/04 05:47:05;;;;;;;18.23;7.50;;;7.80;99.90;;;;;;5075188;28;20051;-71
2022/01/04 05:49:31;;;;;;;18.50;7.35;;;7.80;99.90;;;;;;5075065;28;20070;-71
2022/01/04 05:51:57;;;;;;;18.65;7.25;;;7.80;99.90;;;;;;5072528;28;20045;-71
2022/01/04 05:54:23;;;;;;;26.58;7.75;;;7.80;99.90;;;;;;5076205;28;20050;-71
2022/01/04 05:56:49;;;;;;;23.20;8.38;;;7.80;99.90;;;;;;5054105;28;20040;-71
2022/01/04 05:59:14;;;;;;;22.58;8.32;;;7.80;99.90;;;;;;5075823;28;20163;-71
2022/01/04 06:01:40;;;;;;;28.85;8.43;;;7.80;99.90;;;;;;5056678;28;20126;-71
2022/01/04 06:04:06;;;;;;;31.40;8.00;;;7.80;99.90;;;;;;5074926;28;20586;-71
2022/01/04 06:06:32;;;;;;;20.30;7.80;;;7.80;99.90;;;;;;5078768;28;20120;-71
2022/01/04 06:08:58;;;;;;;36.33;8.98;;;7.80;99.90;;;;;;5065625;28;20410;-71
2022/01/04 06:16:52;;;;;;;17.38;7.60;;;7.80;99.90;;;;;;5074515;28;20040;-71
2022/01/04 06:19:18;;;;;;;22.58;7.72;;;7.80;99.90;;;;;;5066842;28;20046;-71
2022/01/04 06:21:44;;;;;;;22.48;7.38;;;7.80;99.90;;;;;;5064645;28;20127;-72
2022/01/04 06:24:10;;;;;;;20.15;6.80;;;7.80;99.90;;;;;;5079062;28;20040;-72
2022/01/04 06:26:36;;;;;;;13.75;6.18;;;7.80;99.90;;;;;;5083299;28;20515;-71
2022/01/04 06:29:02;;;;;;;18.13;6.25;;;7.80;99.90;;;;;;5081122;28;20127;-71
2022/01/04 06:31:29;;;;;;;20.67;6.13;;;7.80;99.90;;;;;;5079984;28;20052;-72
2022/01/04 06:33:55;;;;;;;16.48;5.70;;;7.80;99.90;;;;;;5084288;28;20043;-71
2022/01/04 06:36:22;;;;;;;16.90;7.82;;;7.70;99.90;;;;;;5078552;28;20062;-71
2022/01/04 06:38:48;;;;;;;18.33;6.22;;;7.70;99.90;;;;;;5085146;28;20040;-72
2022/01/04 06:41:14;;;;;;;20.95;5.13;;;7.80;99.90;;;;;;5077820;28;20044;-71
2022/01/04 06:43:40;;;;;;;14.65;5.13;;;7.80;99.90;;;;;;5076349;28;20540;-72
2022/01/04 06:46:06;;;;;;;25.27;6.22;;;7.80;99.90;;;;;;5064827;28;20047;-71
2022/01/04 06:48:31;;;;;;;16.30;4.75;;;7.80;99.90;;;;;;5081217;28;20625;-71
2022/01/04 06:50:57;;;;;;;22.05;6.03;;;7.80;99.90;;;;;;5082861;28;20047;-72
2022/01/04 06:53:23;;;;;;;19.80;5.78;;;7.80;99.90;;;;;;5080016;28;20047;-71
2022/01/04 06:55:53;;;;;;;18.48;6.32;;;7.80;99.90;;;;;;5076064;28;20140;-71
2022/01/04 06:58:19;;;;;;;12.25;5.50;;;7.80;99.90;;;;;;5082201;28;20043;-71
2022/01/04 07:00:44;;;;;;;21.95;5.28;;;7.80;99.90;;;;;;5076604;28;20048;-71
2022/01/04 07:03:10;;;;;;;17.92;5.05;;;7.80;99.90;;;;;;5081801;28;20032;-71
2022/01/04 07:05:36;;;;;;;21.95;7.43;;;7.80;99.90;;;;;;5078479;28;20032;-71
2022/01/04 07:08:03;;;;;;;17.15;5.13;;;7.80;99.90;;;;;;5068062;28;20043;-71
2022/01/04 07:10:29;;;;;;;13.93;4.90;;;7.80;99.90;;;;;;5081307;28;20494;-71
2022/01/04 07:12:55;;;;;;;16.65;6.72;;;7.80;99.90;;;;;;5076842;28;20278;-71
2022/01/04 07:15:20;;;;;;;17.52;6.47;;;7.80;99.90;;;;;;5081433;28;20110;-72
2022/01/04 07:17:46;;;;;;;21.00;5.75;;;7.80;99.90;;;;;;5079585;28;20142;-72
2022/01/04 07:20:12;;;;;;;21.75;6.35;;;7.80;99.90;;;;;;5079780;28;20095;-71
2022/01/04 07:22:38;;;;;;;16.83;5.35;;;7.80;99.90;;;;;;5082195;28;20066;-71
2022/01/04 07:25:05;;;;;;;20.30;6.43;;;7.80;99.90;;;;;;5076163;28;20043;-72
2022/01/04 07:27:31;;;;;;;18.92;5.75;;;7.80;99.90;;;;;;5080100;28;20040;-71
2022/01/04 07:29:57;;;;;;;13.50;5.53;;;7.80;99.90;;;;;;5079338;28;20040;-71
2022/01/04 07:32:23;;;;;;;16.88;4.68;;;7.80;99.90;;;;;;5078649;28;20472;-71
2022/01/04 07:34:49;;;;;;;14.02;4.65;;;7.80;99.90;;;;;;5081350;28;20081;-71
2022/01/04 07:37:15;;;;;;;13.55;4.13;;;7.80;99.90;;;;;;5079273;28;20044;-72
2022/01/04 07:39:41;;;;;;;8.88;4.55;;;7.70;99.90;;;;;;5079456;28;20097;-71
2022/01/04 07:42:07;;;;;;;18.63;4.53;;;7.70;99.90;;;;;;5047689;28;20040;-72
2022/01/04 07:44:33;;;;;;;13.40;5.10;;;7.70;99.90;;;;;;5078191;28;20036;-71
2022/01/04 07:46:59;;;;;;;12.95;5.07;;;7.70;99.90;;;;;;5081841;28;20399;-71
2022/01/04 07:49:25;;;;;;;21.40;5.30;;;7.70;99.90;;;;;;5073687;28;20512;-71
2022/01/04 07:51:52;;;;;;;20.08;5.53;;;7.70;99.90;;;;;;5075036;28;20044;-71
2022/01/04 07:54:18;;;;;;;15.05;4.45;;;7.70;99.90;;;;;;5074324;28;20039;-72
2022/01/04 07:56:44;;;;;;;18.35;6.18;;;7.70;99.90;;;;;;5074990;28;20432;-72
2022/01/04 07:59:09;;;;;;;16.58;4.93;;;7.70;99.90;;;;;;5076298;28;20051;-71
2022/01/04 08:01:35;;;;;;;13.90;5.20;;;7.70;99.90;;;;;;5073926;28;20059;-71
2022/01/04 08:04:04;;;;;;;22.88;6.20;;;7.70;99.90;;;;;;5078154;28;20592;-71
2022/01/04 08:06:31;;;;;;;23.17;6.43;;;7.70;99.90;;;;;;5067936;28;20040;-72
2022/01/04 08:08:57;;;;;;;20.10;5.38;;;7.70;99.90;;;;;;5075883;28;20039;-71
2022/01/04 08:11:25;;;;;;;14.40;5.30;;;7.70;99.90;;;;;;5074473;28;20543;-71
2022/01/04 08:13:52;;;;;;;17.58;5.47;;;7.70;99.90;;;;;;5070618;28;20051;-72
2022/01/04 08:16:18;;;;;;;11.95;3.10;;;7.70;99.90;;;;;;5077360;28;20064;-71
2022/01/04 08:18:44;;;;;;;10.05;2.72;;;7.70;99.90;;;;;;5075838;28;20123;-71
2022/01/04 08:21:11;;;;;;;5.45;1.80;;;7.60;99.90;;;;;;5075266;28;20088;-72
2022/01/04 08:23:37;;;;;;;6.72;2.05;;;7.60;99.90;;;;;;5073531;28;20044;-71
2022/01/04 08:26:03;;;;;;;7.85;2.65;;;7.50;99.90;;;;;;5052040;28;20504;-71
2022/01/04 08:28:29;;;;;;;5.88;1.17;;;7.50;99.90;;;;;;5075749;28;20042;-71
2022/01/04 08:30:55;;;;;;;4.90;2.13;;;7.50;99.90;;;;;;5072258;28;20035;-72
2022/01/04 08:33:21;;;;;;;6.10;1.45;;;7.50;99.90;;;;;;5073831;28;20047;-71
2022/01/04 08:35:47;;;;;;;4.57;1.08;;;7.40;99.90;;;;;;5072230;28;20044;-71
2022/01/04 08:38:13;;;;;;;7.80;1.75;;;7.40;99.90;;;;;;5073764;28;20516;-71
2022/01/04 08:40:39;;;;;;;6.32;1.48;;;7.30;99.90;;;;;;5074242;28;20036;-71
2022/01/04 08:43:05;;;;;;;4.45;2.05;;;7.30;99.90;;;;;;5073178;28;20044;-71
2022/01/04 08:45:33;;;;;;;4.70;1.50;;;7.20;99.90;;;;;;5077300;28;20043;-71
2022/01/04 08:47:59;;;;;;;6.13;1.70;;;7.20;99.90;;;;;;5071868;28;20108;-71
2022/01/04 08:50:27;;;;;;;4.50;1.92;;;7.10;99.90;;;;;;5075925;28;20036;-71
2022/01/04 08:52:55;;;;;;;5.43;1.80;;;7.10;99.90;;;;;;5055951;28;20052;-70
2022/01/04 08:55:23;;;;;;;6.57;1.33;;;7.10;99.90;;;;;;5073470;28;20044;-71
2022/01/04 08:57:49;;;;;;;5.40;1.60;;;7.10;99.90;;;;;;5074528;28;20047;-71
2022/01/04 09:00:17;;;;;;;4.88;1.52;;;7.10;99.90;;;;;;5070342;28;20400;-71
2022/01/04 09:02:45;;;;;;;4.60;1.20;;;7.10;99.90;;;;;;5076192;28;20060;-71
2022/01/04 09:05:12;;;;;;;2.53;1.10;;;7.10;99.90;;;;;;5071855;28;20093;-71
2022/01/04 09:07:38;;;;;;;9.48;2.13;;;7.10;99.90;;;;;;5077424;28;20422;-71
2022/01/04 09:10:05;;;;;;;5.20;1.13;;;7.10;99.90;;;;;;5074241;28;20048;-70
2022/01/04 09:12:50;;;;;;;3.45;1.50;;;7.00;99.90;;;;;;5073860;28;20497;-70
2022/01/04 09:15:30;;;;;;;6.05;1.60;;;7.00;99.90;;;;;;5075062;28;20035;-71
2022/01/04 09:20:41;;;;;;;4.18;1.35;;;7.00;99.90;;;;;;5060358;28;20607;-71
2022/01/04 09:23:07;;;;;;;4.10;1.23;;;7.00;99.90;;;;;;5073303;28;20032;-71
2022/01/04 09:25:33;;;;;;;5.78;1.42;;;6.90;99.90;;;;;;5075332;28;20859;-72
2022/01/04 09:27:59;;;;;;;11.65;1.83;;;7.00;99.90;;;;;;5076804;28;20169;-70
2022/01/04 09:30:25;;;;;;;4.28;1.40;;;6.90;99.90;;;;;;5072537;28;20098;-71
2022/01/04 09:32:52;;;;;;;6.82;2.13;;;6.90;99.90;;;;;;5071444;28;20489;-71
2022/01/04 09:35:18;;;;;;;7.60;1.70;;;6.90;99.90;;;;;;5070776;28;20040;-70
2022/01/04 09:37:44;;;;;;;3.65;1.02;;;6.90;99.90;;;;;;5073928;28;20048;-71
2022/01/04 09:40:11;;;;;;;3.92;1.13;;;6.90;99.90;;;;;;5070803;28;20048;-71
2022/01/04 09:42:39;;;;;;;5.35;0.98;;;6.90;99.90;;;;;;5073349;28;20048;-71
2022/01/04 09:45:06;;;;;;;5.22;1.13;;;6.80;99.90;;;;;;5074337;28;20051;-71
2022/01/04 09:47:32;;;;;;;5.10;0.85;;;6.90;99.90;;;;;;5055682;28;20046;-71
2022/01/04 09:49:58;;;;;;;3.55;1.40;;;6.80;99.90;;;;;;5076214;28;20102;-70
2022/01/04 09:52:24;;;;;;;6.53;1.15;;;6.80;99.90;;;;;;5073595;28;20032;-71
2022/01/04 09:54:53;;;;;;;2.28;1.00;;;6.80;99.90;;;;;;5080491;28;20059;-71
2022/01/04 09:57:19;;;;;;;1.58;0.85;;;6.70;99.90;;;;;;5074912;28;20044;-71
2022/01/04 09:59:45;;;;;;;6.40;1.05;;;6.60;99.90;;;;;;5060397;28;20391;-70
2022/01/04 10:02:12;;;;;;;7.82;1.73;;;6.60;99.90;;;;;;5078994;28;20119;-71
2022/01/04 10:04:38;;;;;;;2.53;0.90;;;6.60;99.90;;;;;;5072262;28;20047;-70
2022/01/04 10:07:06;;;;;;;3.33;0.80;;;6.60;99.90;;;;;;5078819;28;20448;-70
2022/01/04 10:09:45;;;;;;;1.30;0.55;;;6.60;99.90;;;;;;5074030;28;20489;-71
2022/01/04 10:12:17;;;;;;;4.97;0.98;;;6.60;99.90;;;;;;5077156;28;20449;-71
2022/01/04 10:14:45;;;;;;;4.00;1.00;;;6.60;99.90;;;;;;5075457;28;20093;-71
2022/01/04 10:17:15;;;;;;;4.78;0.93;;;6.60;99.90;;;;;;5076878;28;20102;-70
2022/01/04 10:19:43;;;;;;;5.40;0.90;;;6.60;99.90;;;;;;5077583;28;20049;-71
2022/01/04 10:22:15;;;;;;;1.23;0.60;;;6.60;99.90;;;;;;5072241;28;20291;-71
2022/01/04 10:24:43;;;;;;;1.92;0.95;;;6.50;99.90;;;;;;5077698;28;20142;-70
2022/01/04 10:27:22;;;;;;;6.30;1.23;;;6.50;99.90;;;;;;5072474;28;20130;-70
2022/01/04 10:29:48;;;;;;;7.03;1.88;;;6.40;99.90;;;;;;5077710;28;20146;-71
2022/01/04 10:32:15;;;;;;;3.15;1.00;;;6.40;99.90;;;;;;5078313;28;20064;-71
2022/01/04 10:34:48;;;;;;;7.00;2.10;;;6.30;99.90;;;;;;5058136;28;20044;-71
2022/01/04 10:37:36;;;;;;;5.40;1.40;;;6.30;99.90;;;;;;5080002;28;20074;-71
2022/01/04 10:40:09;;;;;;;4.95;1.40;;;6.30;99.90;;;;;;5072780;28;20036;-71
2022/01/04 10:42:35;;;;;;;5.25;1.30;;;6.20;99.90;;;;;;5077522;28;20062;-71
2022/01/04 10:45:24;;;;;;;5.25;1.58;;;6.20;99.90;;;;;;5058630;28;20048;-71
2022/01/04 10:47:50;;;;;;;5.38;1.05;;;6.20;99.90;;;;;;5075618;28;20044;-70
2022/01/04 10:50:34;;;;;;;9.38;1.98;;;6.20;99.90;;;;;;5079407;28;20405;-70
2022/01/04 10:53:01;;;;;;;6.80;1.73;;;6.20;99.90;;;;;;5074388;28;20126;-70
2022/01/04 10:55:35;;;;;;;3.53;1.52;;;6.20;99.90;;;;;;5061371;28;20575;-70
2022/01/04 10:58:02;;;;;;;6.20;1.45;;;6.20;99.90;;;;;;5077517;28;20417;-71
2022/01/04 11:00:29;;;;;;;2.78;1.27;;;6.20;99.90;;;;;;5076393;28;20709;-71
2022/01/04 11:02:58;;;;;;;4.97;1.80;;;6.30;99.90;;;;;;5078049;28;20055;-70
2022/01/04 11:05:24;;;;;;;2.03;1.10;;;6.30;99.90;;;;;;5055226;28;20871;-71
2022/01/04 11:07:57;;;;;;;5.63;1.33;;;6.30;99.90;;;;;;5077983;28;20567;-70
2022/01/04 11:10:23;;;;;;;;;;;6.30;99.90;;;;;;5074396;28;20520;-70
2022/01/04 11:12:50;;;;;;;3.50;1.23;;;6.30;99.90;;;;;;5075168;28;20051;-70
2022/01/04 11:15:17;;;;;;;4.47;1.55;;;6.30;99.90;;;;;;5050665;28;20123;-70
2022/01/04 11:17:43;;;;;;;7.22;1.50;;;6.30;99.90;;;;;;5074530;28;20092;-71
2022/01/04 11:20:10;;;;;;;3.40;1.85;;;6.30;99.90;;;;;;5078277;28;20062;-70
2022/01/04 11:22:40;;;;;;;7.50;2.45;;;6.30;99.90;;;;;;5074681;28;20039;-70
2022/01/04 11:25:07;;;;;;;4.88;1.63;;;6.30;99.90;;;;;;5079412;28;20032;-70
2022/01/04 11:27:36;;;;;;;13.07;2.28;;;6.30;99.90;;;;;;5075574;28;20052;-70
2022/01/04 11:30:13;;;;;;;26.85;14.68;;;6.30;99.90;;;;;;5078025;28;20044;-70
2022/01/04 11:32:43;;;;;;;24.73;11.02;;;6.30;99.90;;;;;;5077483;28;20117;-71
2022/01/04 11:35:19;;;;;;;8.35;4.20;;;6.30;99.90;;;;;;5071207;28;20120;-70
2022/01/04 11:37:56;;;;;;;6.13;2.80;;;6.30;99.90;;;;;;5079086;28;20047;-70
2022/01/04 11:40:40;;;;;;;7.63;4.50;;;6.40;99.90;;;;;;5075385;28;20054;-70
2022/01/04 11:43:32;;;;;;;7.97;3.47;;;6.30;99.90;;;;;;5075041;28;20039;-70
2022/01/04 11:45:58;;;;;;;6.20;2.50;;;6.40;99.90;;;;;;5077375;28;20036;-70
2022/01/04 11:48:30;;;;;;;6.88;2.13;;;6.40;99.90;;;;;;5071273;28;20093;-70
2022/01/04 11:51:08;;;;;;;3.95;1.80;;;6.40;99.90;;;;;;5077543;28;20048;-71
2022/01/04 11:53:35;;;;;;;4.53;1.88;;;6.40;99.90;;;;;;5073919;28;20455;-70
2022/01/04 11:56:04;;;;;;;5.50;2.08;;;6.40;99.90;;;;;;5057692;28;20105;-70
2022/01/04 11:58:50;;;;;;;6.32;2.40;;;6.40;99.90;;;;;;5075691;28;20407;-71
2022/01/04 12:01:27;;;;;;;4.88;2.20;;;6.40;99.90;;;;;;5053481;28;20101;-70
2022/01/04 12:03:53;;;;;;;7.20;2.75;;;6.40;99.90;;;;;;5077396;28;20045;-70
2022/01/04 12:06:21;;;;;;;6.32;2.38;;;6.40;99.90;;;;;;5073085;28;20036;-70
2022/01/04 12:08:54;;;;;;;5.32;2.10;;;6.40;99.90;;;;;;5058304;28;20036;-70
2022/01/04 12:11:23;;;;;;;;;;;6.40;99.90;;;;;;5058431;28;20040;-70
2022/01/04 12:14:00;;;;;;;7.90;2.20;;;6.40;99.90;;;;;;5074388;28;19920;-70
2022/01/04 12:16:44;;;;;;;7.30;3.28;;;6.40;99.90;;;;;;5077232;28;20048;-70
2022/01/04 12:19:11;;;;;;;6.80;2.25;;;6.30;99.90;;;;;;5071702;28;20409;-71
2022/01/04 12:21:43;;;;;;;5.78;1.98;;;6.30;99.90;;;;;;5074996;28;20079;-71
2022/01/04 12:24:11;;;;;;;5.32;1.48;;;6.20;99.90;;;;;;5073484;28;20036;-71
2022/01/04 12:26:38;;;;;;;4.05;1.42;;;6.10;99.90;;;;;;5057082;28;20044;-71
2022/01/04 12:29:10;;;;;;;5.07;2.00;;;6.20;99.90;;;;;;5077186;28;20054;-71
2022/01/04 12:31:46;;;;;;;7.18;1.55;;;6.20;99.90;;;;;;5054150;28;20185;-71
2022/01/04 12:34:29;;;;;;;5.75;1.85;;;6.20;99.90;;;;;;5076284;28;20047;-71
2022/01/04 12:36:56;;;;;;;6.05;1.65;;;6.10;99.90;;;;;;5055717;28;20040;-71
2022/01/04 12:39:30;;;;;;;8.63;2.15;;;6.10;99.90;;;;;;5071830;28;20056;-71
2022/01/04 12:41:56;;;;;;;10.15;2.10;;;6.10;99.90;;;;;;5075375;28;20047;-71
2022/01/04 12:44:24;;;;;;;9.90;2.28;;;6.10;99.90;;;;;;5072046;28;20085;-71
2022/01/04 12:46:51;;;;;;;6.07;2.22;;;6.10;99.90;;;;;;5076972;28;20371;-71
2022/01/04 12:49:19;;;;;;;6.68;2.17;;;6.10;99.90;;;;;;5072226;28;20040;-71
2022/01/04 12:51:52;;;;;;;7.10;1.98;;;6.10;99.90;;;;;;5073906;28;20051;-71
2022/01/04 12:54:22;;;;;;;6.68;2.03;;;6.10;99.90;;;;;;5072544;28;20078;-71
2022/01/04 12:56:56;;;;;;;3.88;1.50;;;6.10;99.90;;;;;;5068273;28;20036;-71
2022/01/04 12:59:24;;;;;;;4.05;1.83;;;6.10;99.90;;;;;;5074892;28;20420;-71
2022/01/04 13:01:52;;;;;;;4.85;1.50;;;6.10;99.90;;;;;;5070078;28;20135;-71